sensor_id;sensor_type;location;lat;lon;timestamp;pressure;altitude;pressure_sealevel;temperature;humidity
6136;BME280;24008;42.664;23.372;2022-10-26T00:02:11;95148.53;;;15.16;70.41
6136;BME280;24008;42.664;23.372;2022-10-26T00:04:38;95214.28;;;15.53;70.66
6136;BME280;24008;42.664;23.372;2022-10-26T00:07:05;95209.41;;;15.49;70.26
6136;BME280;24008;42.664;23.372;2022-10-26T00:09:32;95208.78;;;15.47;70.45
6136;BME280;24008;42.664;23.372;2022-10-26T00:11:58;95213.47;;;15.44;70.15
6136;BME280;24008;42.664;23.372;2022-10-26T00:14:25;95199.13;;;15.41;70.67
6136;BME280;24008;42.664;23.372;2022-10-26T00:16:52;95112.25;;;14.77;70.83
6136;BME280;24008;42.664;23.372;2022-10-26T00:19:20;95084.06;;;14.59;71.63
6136;BME280;24008;42.664;23.372;2022-10-26T00:21:47;95210.84;;;15.36;71.14
6136;BME280;24008;42.664;23.372;2022-10-26T00:24:14;95202.47;;;15.34;71.21
6136;BME280;24008;42.664;23.372;2022-10-26T00:26:41;95214.56;;;15.33;71.29
6136;BME280;24008;42.664;23.372;2022-10-26T00:29:10;95182.00;;;15.16;71.06
6136;BME280;24008;42.664;23.372;2022-10-26T00:31:37;95209.56;;;15.32;71.07
6136;BME280;24008;42.664;23.372;2022-10-26T00:34:04;95114.88;;;14.43;70.73
6136;BME280;24008;42.664;23.372;2022-10-26T00:36:33;95220.63;;;15.24;71.18
6136;BME280;24008;42.664;23.372;2022-10-26T00:38:59;95175.69;;;14.94;70.58
6136;BME280;24008;42.664;23.372;2022-10-26T00:41:29;95204.38;;;15.16;71.10
6136;BME280;24008;42.664;23.372;2022-10-26T00:43:56;95208.25;;;15.20;70.78
6136;BME280;24008;42.664;23.372;2022-10-26T00:46:25;95178.84;;;14.88;70.85
6136;BME280;24008;42.664;23.372;2022-10-26T00:48:57;95172.25;;;14.86;71.00
6136;BME280;24008;42.664;23.372;2022-10-26T00:51:28;95044.38;;;13.86;70.91
6136;BME280;24008;42.664;23.372;2022-10-26T00:54:00;94984.22;;;13.62;71.09
6136;BME280;24008;42.664;23.372;2022-10-26T00:56:29;95181.75;;;14.85;70.80
6136;BME280;24008;42.664;23.372;2022-10-26T00:59:00;95100.28;;;14.26;71.30
6136;BME280;24008;42.664;23.372;2022-10-26T01:01:28;95203.66;;;14.97;71.72
6136;BME280;24008;42.664;23.372;2022-10-26T01:03:56;95204.00;;;14.94;71.77
6136;BME280;24008;42.664;23.372;2022-10-26T01:06:23;95208.19;;;14.95;71.60
6136;BME280;24008;42.664;23.372;2022-10-26T01:08:50;95160.91;;;14.62;71.91
6136;BME280;24008;42.664;23.372;2022-10-26T01:11:18;95162.03;;;14.60;71.85
6136;BME280;24008;42.664;23.372;2022-10-26T01:13:45;95211.50;;;14.88;71.86
6136;BME280;24008;42.664;23.372;2022-10-26T01:16:28;95179.28;;;14.67;71.63
6136;BME280;24008;42.664;23.372;2022-10-26T01:19:03;95081.72;;;14.06;72.25
6136;BME280;24008;42.664;23.372;2022-10-26T01:21:45;95104.28;;;14.20;72.03
6136;BME280;24008;42.664;23.372;2022-10-26T01:24:32;95198.13;;;14.76;72.79
6136;BME280;24008;42.664;23.372;2022-10-26T01:30:19;95146.41;;;14.27;72.73
6136;BME280;24008;42.664;23.372;2022-10-26T01:32:59;95205.81;;;14.68;73.12
6136;BME280;24008;42.664;23.372;2022-10-26T01:35:33;95130.00;;;14.20;73.62
6136;BME280;24008;42.664;23.372;2022-10-26T01:38:06;95200.47;;;14.61;73.37
6136;BME280;24008;42.664;23.372;2022-10-26T01:40:37;95199.03;;;14.59;73.85
6136;BME280;24008;42.664;23.372;2022-10-26T01:43:07;95051.94;;;13.61;74.09
6136;BME280;24008;42.664;23.372;2022-10-26T01:45:40;95144.16;;;14.24;74.76
6136;BME280;24008;42.664;23.372;2022-10-26T01:48:10;95008.88;;;13.29;74.55
6136;BME280;24008;42.664;23.372;2022-10-26T01:50:39;95151.16;;;14.14;74.90
6136;BME280;24008;42.664;23.372;2022-10-26T01:53:10;95192.31;;;14.40;75.23
6136;BME280;24008;42.664;23.372;2022-10-26T01:55:46;95194.19;;;14.38;75.17
6136;BME280;24008;42.664;23.372;2022-10-26T02:01:22;95152.38;;;14.02;75.50
6136;BME280;24008;42.664;23.372;2022-10-26T02:04:00;95092.56;;;13.66;75.80
6136;BME280;24008;42.664;23.372;2022-10-26T02:06:40;95187.88;;;14.24;76.00
6136;BME280;24008;42.664;23.372;2022-10-26T02:09:17;95152.38;;;14.02;75.79
6136;BME280;24008;42.664;23.372;2022-10-26T02:11:48;95064.63;;;13.37;76.13
6136;BME280;24008;42.664;23.372;2022-10-26T02:14:20;95202.66;;;14.22;76.40
6136;BME280;24008;42.664;23.372;2022-10-26T02:16:54;95209.69;;;14.20;76.79
6136;BME280;24008;42.664;23.372;2022-10-26T02:19:31;95215.91;;;14.10;76.99
6136;BME280;24008;42.664;23.372;2022-10-26T02:22:03;95062.47;;;12.97;77.27
6136;BME280;24008;42.664;23.372;2022-10-26T02:24:33;95007.22;;;12.49;78.50
6136;BME280;24008;42.664;23.372;2022-10-26T02:27:05;95152.47;;;13.31;79.10
6136;BME280;24008;42.664;23.372;2022-10-26T02:29:32;95144.09;;;13.11;79.98
6136;BME280;24008;42.664;23.372;2022-10-26T02:32:02;95212.84;;;13.53;80.54
6136;BME280;24008;42.664;23.372;2022-10-26T02:34:31;95208.75;;;13.42;80.91
6136;BME280;24008;42.664;23.372;2022-10-26T02:36:59;95218.66;;;13.37;80.98
6136;BME280;24008;42.664;23.372;2022-10-26T02:39:30;95186.38;;;13.07;81.66
6136;BME280;24008;42.664;23.372;2022-10-26T02:42:00;95170.72;;;12.83;82.32
6136;BME280;24008;42.664;23.372;2022-10-26T02:44:30;95170.41;;;12.68;83.15
6136;BME280;24008;42.664;23.372;2022-10-26T02:46:58;95170.63;;;12.47;84.09
6136;BME280;24008;42.664;23.372;2022-10-26T02:49:27;95210.78;;;12.66;85.05
6136;BME280;24008;42.664;23.372;2022-10-26T02:52:00;95210.66;;;12.58;86.01
6136;BME280;24008;42.664;23.372;2022-10-26T02:54:32;95002.91;;;11.21;86.12
6136;BME280;24008;42.664;23.372;2022-10-26T02:57:06;95200.72;;;12.45;86.90
6136;BME280;24008;42.664;23.372;2022-10-26T02:59:35;95224.06;;;12.52;87.04
6136;BME280;24008;42.664;23.372;2022-10-26T03:02:04;95084.16;;;11.66;87.34
6136;BME280;24008;42.664;23.372;2022-10-26T03:04:33;95167.97;;;12.02;87.81
6136;BME280;24008;42.664;23.372;2022-10-26T03:07:00;95230.69;;;12.45;87.38
6136;BME280;24008;42.664;23.372;2022-10-26T03:09:28;95125.16;;;11.75;87.84
6136;BME280;24008;42.664;23.372;2022-10-26T03:11:55;95124.44;;;11.73;87.56
6136;BME280;24008;42.664;23.372;2022-10-26T03:14:21;95231.13;;;12.40;88.06
6136;BME280;24008;42.664;23.372;2022-10-26T03:16:48;95145.09;;;11.81;88.16
6136;BME280;24008;42.664;23.372;2022-10-26T03:19:15;95235.34;;;12.32;88.31
6136;BME280;24008;42.664;23.372;2022-10-26T03:21:43;95165.56;;;11.62;88.46
6136;BME280;24008;42.664;23.372;2022-10-26T03:24:10;95195.22;;;11.84;88.77
6136;BME280;24008;42.664;23.372;2022-10-26T03:26:37;95194.56;;;11.82;88.87
6136;BME280;24008;42.664;23.372;2022-10-26T03:29:03;95238.06;;;12.01;89.31
6136;BME280;24008;42.664;23.372;2022-10-26T03:31:30;95178.50;;;11.70;89.52
6136;BME280;24008;42.664;23.372;2022-10-26T03:33:57;95243.84;;;12.13;89.61
6136;BME280;24008;42.664;23.372;2022-10-26T03:36:24;95249.13;;;12.11;90.01
6136;BME280;24008;42.664;23.372;2022-10-26T03:38:52;95060.28;;;10.90;90.11
6136;BME280;24008;42.664;23.372;2022-10-26T03:41:19;95219.63;;;11.88;90.33
6136;BME280;24008;42.664;23.372;2022-10-26T03:43:46;95262.06;;;12.10;90.93
6136;BME280;24008;42.664;23.372;2022-10-26T03:46:13;95227.59;;;11.95;90.80
6136;BME280;24008;42.664;23.372;2022-10-26T03:48:40;95257.47;;;12.13;91.40
6136;BME280;24008;42.664;23.372;2022-10-26T03:51:07;95250.47;;;12.15;91.65
6136;BME280;24008;42.664;23.372;2022-10-26T03:53:33;95252.34;;;12.13;91.72
6136;BME280;24008;42.664;23.372;2022-10-26T03:56:02;95104.97;;;11.14;91.44
6136;BME280;24008;42.664;23.372;2022-10-26T03:58:28;95248.72;;;12.06;91.54
6136;BME280;24008;42.664;23.372;2022-10-26T04:00:55;95082.63;;;10.88;91.80
6136;BME280;24008;42.664;23.372;2022-10-26T04:03:22;95249.38;;;12.08;92.11
6136;BME280;24008;42.664;23.372;2022-10-26T04:05:49;95208.44;;;11.79;92.28
6136;BME280;24008;42.664;23.372;2022-10-26T04:08:15;95259.63;;;12.08;92.45
6136;BME280;24008;42.664;23.372;2022-10-26T04:10:44;95260.31;;;12.10;92.52
6136;BME280;24008;42.664;23.372;2022-10-26T04:13:12;95110.63;;;11.18;93.25
6136;BME280;24008;42.664;23.372;2022-10-26T04:15:39;95182.41;;;11.65;93.64
6136;BME280;24008;42.664;23.372;2022-10-26T04:18:06;95082.22;;;11.02;94.02
6136;BME280;24008;42.664;23.372;2022-10-26T04:20:33;95265.00;;;12.24;95.15
6136;BME280;24008;42.664;23.372;2022-10-26T04:23:02;95211.91;;;12.07;95.89
6136;BME280;24008;42.664;23.372;2022-10-26T04:25:30;95175.84;;;11.81;95.46
6136;BME280;24008;42.664;23.372;2022-10-26T04:27:58;95259.31;;;12.40;95.59
6136;BME280;24008;42.664;23.372;2022-10-26T04:30:26;95261.44;;;12.45;94.84
6136;BME280;24008;42.664;23.372;2022-10-26T04:32:53;95269.81;;;12.47;95.01
6136;BME280;24008;42.664;23.372;2022-10-26T04:35:20;95259.56;;;12.47;94.73
6136;BME280;24008;42.664;23.372;2022-10-26T04:37:47;95110.88;;;11.53;94.80
6136;BME280;24008;42.664;23.372;2022-10-26T04:40:13;95273.31;;;12.46;94.48
6136;BME280;24008;42.664;23.372;2022-10-26T04:42:41;95264.97;;;12.44;94.25
6136;BME280;24008;42.664;23.372;2022-10-26T04:45:09;95210.84;;;12.00;94.29
6136;BME280;24008;42.664;23.372;2022-10-26T04:47:37;95273.47;;;12.35;94.50
6136;BME280;24008;42.664;23.372;2022-10-26T04:50:05;95252.34;;;12.13;94.21
6136;BME280;24008;42.664;23.372;2022-10-26T04:52:32;95271.22;;;12.22;94.17
6136;BME280;24008;42.664;23.372;2022-10-26T04:54:58;95283.66;;;12.17;94.61
6136;BME280;24008;42.664;23.372;2022-10-26T04:57:25;95279.34;;;12.17;94.84
6136;BME280;24008;42.664;23.372;2022-10-26T04:59:52;95233.78;;;11.92;94.80
6136;BME280;24008;42.664;23.372;2022-10-26T05:02:19;95280.66;;;12.21;94.23
6136;BME280;24008;42.664;23.372;2022-10-26T05:04:48;95296.31;;;12.18;93.72
6136;BME280;24008;42.664;23.372;2022-10-26T05:07:14;95292.53;;;12.13;92.75
6136;BME280;24008;42.664;23.372;2022-10-26T05:09:41;95292.81;;;12.10;91.77
6136;BME280;24008;42.664;23.372;2022-10-26T05:12:08;95290.25;;;12.00;90.55
6136;BME280;24008;42.664;23.372;2022-10-26T05:14:35;95264.78;;;11.79;90.38
6136;BME280;24008;42.664;23.372;2022-10-26T05:17:01;95295.78;;;11.86;90.55
6136;BME280;24008;42.664;23.372;2022-10-26T05:19:28;95215.41;;;11.29;90.77
6136;BME280;24008;42.664;23.372;2022-10-26T05:21:56;95282.69;;;11.70;91.16
6136;BME280;24008;42.664;23.372;2022-10-26T05:24:23;95231.84;;;11.36;92.75
6136;BME280;24008;42.664;23.372;2022-10-26T05:26:50;95288.63;;;11.70;92.80
6136;BME280;24008;42.664;23.372;2022-10-26T05:29:16;95285.16;;;11.81;93.07
6136;BME280;24008;42.664;23.372;2022-10-26T05:31:43;95297.81;;;11.92;92.53
6136;BME280;24008;42.664;23.372;2022-10-26T05:34:10;95255.47;;;11.69;91.82
6136;BME280;24008;42.664;23.372;2022-10-26T05:36:37;95319.00;;;11.94;90.45
6136;BME280;24008;42.664;23.372;2022-10-26T05:39:05;95317.50;;;11.82;90.72
6136;BME280;24008;42.664;23.372;2022-10-26T05:41:32;95275.09;;;11.39;90.97
6136;BME280;24008;42.664;23.372;2022-10-26T05:43:59;95322.97;;;11.68;91.03
6136;BME280;24008;42.664;23.372;2022-10-26T05:46:26;95319.19;;;11.72;91.55
6136;BME280;24008;42.664;23.372;2022-10-26T05:48:52;95266.91;;;11.45;91.67
6136;BME280;24008;42.664;23.372;2022-10-26T05:51:19;95324.63;;;11.88;91.58
6136;BME280;24008;42.664;23.372;2022-10-26T05:53:46;95328.56;;;12.02;92.00
6136;BME280;24008;42.664;23.372;2022-10-26T05:56:18;95337.59;;;12.15;91.59
6136;BME280;24008;42.664;23.372;2022-10-26T05:58:47;95344.59;;;12.33;91.29
6136;BME280;24008;42.664;23.372;2022-10-26T06:01:23;95309.88;;;12.48;90.54
6136;BME280;24008;42.664;23.372;2022-10-26T06:04:03;95332.38;;;13.20;87.82
6136;BME280;24008;42.664;23.372;2022-10-26T06:06:38;95317.50;;;13.68;85.14
6136;BME280;24008;42.664;23.372;2022-10-26T06:09:08;95338.81;;;14.14;81.79
6136;BME280;24008;42.664;23.372;2022-10-26T06:11:38;95308.06;;;14.04;79.20
6136;BME280;24008;42.664;23.372;2022-10-26T06:14:05;95346.63;;;14.40;78.30
6136;BME280;24008;42.664;23.372;2022-10-26T06:16:40;95307.91;;;14.41;77.33
6136;BME280;24008;42.664;23.372;2022-10-26T06:19:20;95347.50;;;15.34;75.65
6136;BME280;24008;42.664;23.372;2022-10-26T06:21:58;95348.59;;;16.16;72.32
6136;BME280;24008;42.664;23.372;2022-10-26T06:24:34;95352.47;;;16.28;70.47
6136;BME280;24008;42.664;23.372;2022-10-26T06:27:14;95246.38;;;15.82;69.67
6136;BME280;24008;42.664;23.372;2022-10-26T06:29:47;95301.78;;;16.84;66.94
6136;BME280;24008;42.664;23.372;2022-10-26T06:32:17;95355.81;;;17.57;64.12
6136;BME280;24008;42.664;23.372;2022-10-26T06:34:47;95320.44;;;17.57;63.62
6136;BME280;24008;42.664;23.372;2022-10-26T06:37:16;95305.19;;;17.32;63.37
6136;BME280;24008;42.664;23.372;2022-10-26T06:39:45;95344.44;;;17.35;64.15
6136;BME280;24008;42.664;23.372;2022-10-26T06:42:14;95355.31;;;17.14;64.75
6136;BME280;24008;42.664;23.372;2022-10-26T06:44:42;95357.97;;;16.90;66.35
6136;BME280;24008;42.664;23.372;2022-10-26T06:47:14;95363.13;;;16.90;66.36
6136;BME280;24008;42.664;23.372;2022-10-26T06:49:54;95332.97;;;17.29;65.10
6136;BME280;24008;42.664;23.372;2022-10-26T06:52:30;95358.69;;;18.69;61.64
6136;BME280;24008;42.664;23.372;2022-10-26T06:54:59;95306.28;;;19.41;56.73
6136;BME280;24008;42.664;23.372;2022-10-26T06:57:32;95194.50;;;19.87;53.97
6136;BME280;24008;42.664;23.372;2022-10-26T07:00:02;95325.13;;;21.54;51.10
6136;BME280;24008;42.664;23.372;2022-10-26T07:02:29;95370.69;;;22.59;48.46
6136;BME280;24008;42.664;23.372;2022-10-26T07:04:56;95344.03;;;23.10;45.98
6136;BME280;24008;42.664;23.372;2022-10-26T07:07:25;95318.66;;;23.43;45.59
6136;BME280;24008;42.664;23.372;2022-10-26T07:09:52;95244.09;;;23.22;44.81
6136;BME280;24008;42.664;23.372;2022-10-26T07:12:19;95324.38;;;24.16;43.59
6136;BME280;24008;42.664;23.372;2022-10-26T07:14:47;95319.56;;;24.20;43.26
6136;BME280;24008;42.664;23.372;2022-10-26T07:17:14;95360.44;;;24.70;42.43
6136;BME280;24008;42.664;23.372;2022-10-26T07:19:41;95168.13;;;23.82;42.65
6136;BME280;24008;42.664;23.372;2022-10-26T07:22:09;95371.44;;;24.79;42.06
6136;BME280;24008;42.664;23.372;2022-10-26T07:24:35;95319.44;;;24.89;42.31
6136;BME280;24008;42.664;23.372;2022-10-26T07:27:02;95243.06;;;24.87;40.74
6136;BME280;24008;42.664;23.372;2022-10-26T07:29:29;95372.31;;;26.14;40.11
6136;BME280;24008;42.664;23.372;2022-10-26T07:31:57;95371.50;;;26.32;39.13
6136;BME280;24008;42.664;23.372;2022-10-26T07:34:24;95368.13;;;26.43;39.55
6136;BME280;24008;42.664;23.372;2022-10-26T07:36:50;95328.19;;;26.29;38.45
6136;BME280;24008;42.664;23.372;2022-10-26T07:39:17;95009.81;;;24.12;38.92
6136;BME280;24008;42.664;23.372;2022-10-26T07:41:44;95315.09;;;26.29;39.02
6136;BME280;24008;42.664;23.372;2022-10-26T07:44:11;95084.88;;;24.96;38.25
6136;BME280;24008;42.664;23.372;2022-10-26T07:46:38;95366.75;;;26.94;37.87
6136;BME280;24008;42.664;23.372;2022-10-26T07:49:07;95360.84;;;26.98;37.83
6136;BME280;24008;42.664;23.372;2022-10-26T07:51:34;95262.13;;;26.39;38.04
6136;BME280;24008;42.664;23.372;2022-10-26T07:54:00;95245.38;;;26.63;37.78
6136;BME280;24008;42.664;23.372;2022-10-26T07:56:27;95358.78;;;27.35;37.53
6136;BME280;24008;42.664;23.372;2022-10-26T07:58:54;95270.03;;;26.97;37.69
6136;BME280;24008;42.664;23.372;2022-10-26T08:01:22;95253.03;;;27.11;37.26
6136;BME280;24008;42.664;23.372;2022-10-26T08:03:51;95358.56;;;28.00;36.28
6136;BME280;24008;42.664;23.372;2022-10-26T08:06:20;95251.56;;;27.44;35.71
6136;BME280;24008;42.664;23.372;2022-10-26T08:08:48;95015.44;;;25.89;36.09
6136;BME280;24008;42.664;23.372;2022-10-26T08:11:16;95372.78;;;27.87;35.25
6136;BME280;24008;42.664;23.372;2022-10-26T08:13:43;95249.03;;;26.74;36.63
6136;BME280;24008;42.664;23.372;2022-10-26T08:16:10;95145.63;;;26.46;36.41
6136;BME280;24008;42.664;23.372;2022-10-26T08:18:37;95122.72;;;26.53;36.69
6136;BME280;24008;42.664;23.372;2022-10-26T08:21:06;95130.22;;;26.62;35.50
6136;BME280;24008;42.664;23.372;2022-10-26T08:23:35;95088.97;;;26.22;35.84
6136;BME280;24008;42.664;23.372;2022-10-26T08:26:02;95370.41;;;27.51;36.12
6136;BME280;24008;42.664;23.372;2022-10-26T08:28:29;95351.00;;;27.52;36.07
6136;BME280;24008;42.664;23.372;2022-10-26T08:30:56;95252.38;;;27.04;36.03
6136;BME280;24008;42.664;23.372;2022-10-26T08:33:24;95348.00;;;27.83;35.10
6136;BME280;24008;42.664;23.372;2022-10-26T08:35:55;95251.16;;;27.35;35.06
6136;BME280;24008;42.664;23.372;2022-10-26T08:38:22;95354.13;;;28.01;35.00
6136;BME280;24008;42.664;23.372;2022-10-26T08:40:50;95350.63;;;27.83;35.65
6136;BME280;24008;42.664;23.372;2022-10-26T08:43:20;95086.47;;;26.62;34.65
6136;BME280;24008;42.664;23.372;2022-10-26T08:45:52;95348.63;;;28.30;35.15
6136;BME280;24008;42.664;23.372;2022-10-26T08:48:23;95244.81;;;27.59;34.42
6136;BME280;24008;42.664;23.372;2022-10-26T08:50:54;95283.56;;;28.09;34.46
6136;BME280;24008;42.664;23.372;2022-10-26T08:53:26;94947.19;;;26.07;33.55
6136;BME280;24008;42.664;23.372;2022-10-26T08:55:59;95363.38;;;28.60;34.54
6136;BME280;24008;42.664;23.372;2022-10-26T08:58:32;95271.53;;;27.96;33.75
6136;BME280;24008;42.664;23.372;2022-10-26T09:01:02;94941.16;;;26.06;33.75
6136;BME280;24008;42.664;23.372;2022-10-26T09:03:29;95254.25;;;27.72;33.23
6136;BME280;24008;42.664;23.372;2022-10-26T09:06:17;95288.31;;;27.95;33.97
6136;BME280;24008;42.664;23.372;2022-10-26T09:08:55;95309.53;;;28.34;32.96
6136;BME280;24008;42.664;23.372;2022-10-26T09:11:36;95352.09;;;29.10;33.08
6136;BME280;24008;42.664;23.372;2022-10-26T09:14:12;94924.84;;;26.16;33.32
6136;BME280;24008;42.664;23.372;2022-10-26T09:16:49;95290.09;;;28.68;33.16
6136;BME280;24008;42.664;23.372;2022-10-26T09:19:30;95109.03;;;27.15;34.21
6136;BME280;24008;42.664;23.372;2022-10-26T09:22:03;95233.69;;;28.14;32.37
6136;BME280;24008;42.664;23.372;2022-10-26T09:24:35;95235.53;;;27.97;32.96
6136;BME280;24008;42.664;23.372;2022-10-26T09:27:11;95342.38;;;28.65;33.90
6136;BME280;24008;42.664;23.372;2022-10-26T09:29:44;94990.75;;;26.76;33.10
6136;BME280;24008;42.664;23.372;2022-10-26T09:32:16;95228.34;;;28.54;31.97
6136;BME280;24008;42.664;23.372;2022-10-26T09:34:48;95341.22;;;29.06;31.08
6136;BME280;24008;42.664;23.372;2022-10-26T09:37:18;95256.44;;;29.04;30.58
6136;BME280;24008;42.664;23.372;2022-10-26T09:39:55;95314.75;;;29.51;31.42
6136;BME280;24008;42.664;23.372;2022-10-26T09:42:30;95251.75;;;28.73;30.19
6136;BME280;24008;42.664;23.372;2022-10-26T09:45:03;95344.88;;;29.22;30.70
6136;BME280;24008;42.664;23.372;2022-10-26T09:47:34;95341.47;;;28.88;32.12
6136;BME280;24008;42.664;23.372;2022-10-26T09:50:14;95344.41;;;28.91;32.25
6136;BME280;24008;42.664;23.372;2022-10-26T09:52:42;95285.06;;;28.67;30.94
6136;BME280;24008;42.664;23.372;2022-10-26T09:55:10;95346.34;;;28.96;30.41
6136;BME280;24008;42.664;23.372;2022-10-26T09:57:41;95335.13;;;28.55;31.30
6136;BME280;24008;42.664;23.372;2022-10-26T10:00:12;95336.44;;;28.24;30.38
6136;BME280;24008;42.664;23.372;2022-10-26T10:02:41;95309.75;;;28.04;30.56
6136;BME280;24008;42.664;23.372;2022-10-26T10:05:36;95329.25;;;28.48;30.59
6136;BME280;24008;42.664;23.372;2022-10-26T10:08:09;95237.59;;;28.23;30.19
6136;BME280;24008;42.664;23.372;2022-10-26T10:10:37;95321.06;;;28.95;29.63
6136;BME280;24008;42.664;23.372;2022-10-26T10:13:16;95321.41;;;28.37;29.74
6136;BME280;24008;42.664;23.372;2022-10-26T10:15:51;95302.88;;;27.11;32.31
6136;BME280;24008;42.664;23.372;2022-10-26T10:18:20;95276.97;;;26.15;34.44
6136;BME280;24008;42.664;23.372;2022-10-26T10:20:53;95275.91;;;25.56;34.55
6136;BME280;24008;42.664;23.372;2022-10-26T10:23:26;95256.25;;;24.24;35.82
6136;BME280;24008;42.664;23.372;2022-10-26T10:26:07;95209.53;;;23.40;36.64
6136;BME280;24008;42.664;23.372;2022-10-26T10:28:37;95226.53;;;23.05;37.63
6136;BME280;24008;42.664;23.372;2022-10-26T10:31:17;95315.50;;;23.34;39.36
6136;BME280;24008;42.664;23.372;2022-10-26T10:33:44;95301.97;;;22.93;39.85
6136;BME280;24008;42.664;23.372;2022-10-26T10:36:15;95307.19;;;22.80;39.19
6136;BME280;24008;42.664;23.372;2022-10-26T10:38:45;95307.38;;;22.85;39.27
6136;BME280;24008;42.664;23.372;2022-10-26T10:41:18;95247.03;;;22.48;39.19
6136;BME280;24008;42.664;23.372;2022-10-26T10:43:50;95299.53;;;22.65;39.92
6136;BME280;24008;42.664;23.372;2022-10-26T10:46:23;95147.88;;;21.71;40.54
6136;BME280;24008;42.664;23.372;2022-10-26T10:48:59;95298.75;;;22.78;41.03
6136;BME280;24008;42.664;23.372;2022-10-26T10:51:28;95224.19;;;22.37;41.40
6136;BME280;24008;42.664;23.372;2022-10-26T10:53:56;95292.53;;;22.85;41.23
6136;BME280;24008;42.664;23.372;2022-10-26T10:56:34;95292.31;;;22.87;42.14
6136;BME280;24008;42.664;23.372;2022-10-26T10:59:18;95286.88;;;22.95;41.09
6136;BME280;24008;42.664;23.372;2022-10-26T11:01:49;95282.06;;;22.98;40.80
6136;BME280;24008;42.664;23.372;2022-10-26T11:04:39;95280.69;;;23.03;40.26
6136;BME280;24008;42.664;23.372;2022-10-26T11:07:12;95274.84;;;23.07;40.11
6136;BME280;24008;42.664;23.372;2022-10-26T11:10:01;95277.44;;;23.14;40.67
6136;BME280;24008;42.664;23.372;2022-10-26T11:12:31;95267.66;;;23.03;40.15
6136;BME280;24008;42.664;23.372;2022-10-26T11:15:07;95261.81;;;23.01;40.68
6136;BME280;24008;42.664;23.372;2022-10-26T11:17:44;94977.13;;;20.77;41.20
6136;BME280;24008;42.664;23.372;2022-10-26T11:20:16;95263.06;;;22.91;41.58
6136;BME280;24008;42.664;23.372;2022-10-26T11:22:58;95131.88;;;22.00;41.73
6136;BME280;24008;42.664;23.372;2022-10-26T11:25:29;95171.94;;;22.06;41.53
6136;BME280;24008;42.664;23.372;2022-10-26T11:28:03;95274.09;;;22.67;41.44
6136;BME280;24008;42.664;23.372;2022-10-26T11:30:34;95269.47;;;22.69;42.09
6136;BME280;24008;42.664;23.372;2022-10-26T11:33:04;95267.69;;;22.70;42.08
6136;BME280;24008;42.664;23.372;2022-10-26T11:35:37;95264.44;;;22.74;41.93
6136;BME280;24008;42.664;23.372;2022-10-26T11:38:14;95258.47;;;22.80;41.97
6136;BME280;24008;42.664;23.372;2022-10-26T11:40:47;95257.47;;;22.81;41.40
6136;BME280;24008;42.664;23.372;2022-10-26T11:43:23;95269.50;;;22.76;41.25
6136;BME280;24008;42.664;23.372;2022-10-26T11:46:02;95183.75;;;22.21;41.15
6136;BME280;24008;42.664;23.372;2022-10-26T11:48:34;95256.84;;;22.66;41.15
6136;BME280;24008;42.664;23.372;2022-10-26T11:51:04;95256.44;;;22.69;41.87
6136;BME280;24008;42.664;23.372;2022-10-26T11:53:39;95250.25;;;22.70;41.39
6136;BME280;24008;42.664;23.372;2022-10-26T11:56:12;95227.00;;;22.42;41.02
6136;BME280;24008;42.664;23.372;2022-10-26T11:58:43;95244.22;;;22.50;41.18
6136;BME280;24008;42.664;23.372;2022-10-26T12:01:14;95246.06;;;22.43;41.01
6136;BME280;24008;42.664;23.372;2022-10-26T12:03:46;95240.66;;;22.31;40.84
6136;BME280;24008;42.664;23.372;2022-10-26T12:06:16;95201.53;;;21.98;41.14
6136;BME280;24008;42.664;23.372;2022-10-26T12:08:47;95204.75;;;22.00;40.18
6136;BME280;24008;42.664;23.372;2022-10-26T12:11:25;95248.66;;;22.16;40.00
6136;BME280;24008;42.664;23.372;2022-10-26T12:13:58;95243.63;;;22.08;40.30
6136;BME280;24008;42.664;23.372;2022-10-26T12:16:41;95245.81;;;22.11;40.14
6136;BME280;24008;42.664;23.372;2022-10-26T12:19:15;95093.41;;;21.30;39.07
6136;BME280;24008;42.664;23.372;2022-10-26T12:21:44;95060.94;;;21.06;38.81
6136;BME280;24008;42.664;23.372;2022-10-26T12:24:30;95246.03;;;22.30;39.48
6136;BME280;24008;42.664;23.372;2022-10-26T12:27:00;95245.06;;;22.31;39.34
6136;BME280;24008;42.664;23.372;2022-10-26T12:29:56;95071.75;;;21.16;38.15
6136;BME280;24008;42.664;23.372;2022-10-26T12:32:51;95230.00;;;22.13;37.74
6136;BME280;24008;42.664;23.372;2022-10-26T12:35:39;95069.53;;;21.00;37.66
6136;BME280;24008;42.664;23.372;2022-10-26T12:41:18;95090.19;;;21.21;37.98
6136;BME280;24008;42.664;23.372;2022-10-26T12:43:45;95233.81;;;22.04;37.58
6136;BME280;24008;42.664;23.372;2022-10-26T12:46:39;95228.19;;;22.00;36.79
6136;BME280;24008;42.664;23.372;2022-10-26T12:52:47;95174.63;;;21.38;37.16
6136;BME280;24008;42.664;23.372;2022-10-26T12:58:44;95233.94;;;21.76;37.05
6136;BME280;24008;42.664;23.372;2022-10-26T13:01:29;95234.75;;;21.70;37.67
6136;BME280;24008;42.664;23.372;2022-10-26T13:04:06;94986.66;;;20.03;37.43
6136;BME280;24008;42.664;23.372;2022-10-26T13:06:45;95175.66;;;21.44;37.83
6136;BME280;24008;42.664;23.372;2022-10-26T13:09:18;95191.47;;;21.49;37.82
6136;BME280;24008;42.664;23.372;2022-10-26T13:11:48;95240.13;;;21.75;37.68
6136;BME280;24008;42.664;23.372;2022-10-26T13:14:20;95153.13;;;21.16;37.45
6136;BME280;24008;42.664;23.372;2022-10-26T13:16:48;95238.53;;;21.74;37.89
6136;BME280;24008;42.664;23.372;2022-10-26T13:19:23;95166.31;;;21.15;37.43
6136;BME280;24008;42.664;23.372;2022-10-26T13:21:51;95159.19;;;21.24;37.74
6136;BME280;24008;42.664;23.372;2022-10-26T13:24:22;95206.84;;;21.50;36.94
6136;BME280;24008;42.664;23.372;2022-10-26T13:27:23;95240.13;;;21.75;36.70
6136;BME280;24008;42.664;23.372;2022-10-26T13:30:18;95247.75;;;21.76;36.79
6136;BME280;24008;42.664;23.372;2022-10-26T13:32:48;95267.38;;;21.72;36.18
6136;BME280;24008;42.664;23.372;2022-10-26T13:35:19;95143.47;;;20.97;35.94
6136;BME280;24008;42.664;23.372;2022-10-26T13:37:47;95256.72;;;21.61;35.49